Time;durP1;ratioP1;P1;durP2;ratioP2;P2;SDS_P1;SDS_P2;PMS_P1;PMS_P2;Temp;Humidity;BMP_temperature;BMP_pressure;BME280_temperature;BME280_humidity;BME280_pressure;Samples;Min_cycle;Max_cycle;Signal;HPM_P1;HPM_P2
2022/03/30 00:00:47;;;;;;;23.52;10.15;;;12.00;42.90;;;;;;4981640;28;20409;-79
2022/03/30 00:03:13;;;;;;;;;;;12.00;42.90;;;;;;4983590;28;20073;-79
2022/03/30 00:05:39;;;;;;;32.97;14.48;;;12.10;43.60;;;;;;4983405;28;19937;-79
2022/03/30 00:08:05;;;;;;;26.88;12.60;;;12.00;43.80;;;;;;4982008;28;20030;-79
2022/03/30 00:10:32;;;;;;;31.05;13.88;;;12.00;44.10;;;;;;4981300;28;20062;-78
2022/03/30 00:12:58;;;;;;;45.35;17.45;;;12.00;44.20;;;;;;4981521;28;20055;-79
2022/03/30 00:15:24;;;;;;;;;;;11.90;44.20;;;;;;4983701;28;20050;-78
2022/03/30 00:17:49;;;;;;;29.98;15.25;;;11.90;44.40;;;;;;4983344;28;20413;-78
2022/03/30 00:20:15;;;;;;;31.33;13.80;;;11.90;44.30;;;;;;4984056;28;20038;-78
2022/03/30 00:22:41;;;;;;;;;;;11.90;44.40;;;;;;4987169;28;20031;-79
2022/03/30 00:25:08;;;;;;;24.55;10.55;;;11.90;44.70;;;;;;4985775;28;19909;-78
2022/03/30 00:27:35;;;;;;;27.02;10.55;;;11.90;44.30;;;;;;4986762;28;20030;-78
2022/03/30 00:30:01;;;;;;;28.08;12.32;;;11.90;44.60;;;;;;4986215;28;20038;-80
2022/03/30 00:32:26;;;;;;;;;;;11.90;44.40;;;;;;4986052;28;20502;-80
2022/03/30 00:34:52;;;;;;;20.95;9.38;;;11.80;45.10;;;;;;4986352;28;19933;-78
2022/03/30 00:37:18;;;;;;;;;;;11.80;45.70;;;;;;4985847;28;20133;-78
2022/03/30 00:39:43;;;;;;;19.20;8.70;;;11.80;45.10;;;;;;4987874;28;19906;-81
2022/03/30 00:42:16;;;;;;;;;;;11.80;44.80;;;;;;4985931;28;20054;-78
2022/03/30 00:44:42;;;;;;;20.92;10.55;;;11.70;44.90;;;;;;4985391;28;19910;-79
2022/03/30 00:47:11;;;;;;;;;;;11.70;45.10;;;;;;4985491;28;20074;-81
2022/03/30 00:49:37;;;;;;;27.23;11.45;;;11.70;45.00;;;;;;4985410;28;19909;-78
2022/03/30 00:52:03;;;;;;;;;;;11.60;45.20;;;;;;4985942;28;20082;-81
2022/03/30 00:54:28;;;;;;;24.17;12.57;;;11.60;45.10;;;;;;4986527;28;19965;-79
2022/03/30 00:56:55;;;;;;;;;;;11.60;45.40;;;;;;4983912;28;20051;-79
2022/03/30 00:59:20;;;;;;;27.07;12.70;;;11.50;45.80;;;;;;4984325;28;19910;-79
2022/03/30 01:01:46;;;;;;;;;;;11.50;46.10;;;;;;4984575;28;20027;-77
2022/03/30 01:04:12;;;;;;;34.75;16.85;;;11.40;46.50;;;;;;4983445;28;19973;-79
2022/03/30 01:06:37;;;;;;;;;;;11.40;46.80;;;;;;4985394;28;20023;-79
2022/03/30 01:09:03;;;;;;;38.90;16.85;;;11.30;46.80;;;;;;4984891;28;19906;-79
2022/03/30 01:11:28;;;;;;;;;;;11.30;46.80;;;;;;4983928;28;20224;-79
2022/03/30 01:13:54;;;;;;;26.35;14.25;;;11.20;46.80;;;;;;4984240;28;19922;-79
2022/03/30 01:16:21;;;;;;;;;;;11.20;46.40;;;;;;4983594;28;20030;-79
2022/03/30 01:18:46;;;;;;;29.38;14.82;;;11.20;46.80;;;;;;4982756;28;20008;-79
2022/03/30 01:21:12;;;;;;;;;;;11.20;46.50;;;;;;4984867;28;20107;-79
2022/03/30 01:23:37;;;;;;;35.58;15.65;;;11.20;46.70;;;;;;4991359;28;19945;-80
2022/03/30 01:26:07;;;;;;;;;;;11.20;47.30;;;;;;4993378;28;20066;-80
2022/03/30 01:28:33;;;;;;;31.67;14.45;;;11.10;48.00;;;;;;4986803;28;19913;-79
2022/03/30 01:33:48;;;;;;;26.55;13.10;;;11.00;48.10;;;;;;4983991;28;20057;-79
2022/03/30 01:36:16;;;;;;;27.15;12.43;;;11.00;48.20;;;;;;4983852;28;20022;-78
2022/03/30 01:38:45;;;;;;;20.80;11.90;;;10.90;48.30;;;;;;4984996;28;20045;-79
2022/03/30 01:41:12;;;;;;;25.83;12.45;;;10.90;48.40;;;;;;4985126;28;20031;-79
2022/03/30 01:43:37;;;;;;;25.83;14.07;;;10.90;48.60;;;;;;4984106;28;20054;-79
2022/03/30 01:46:03;;;;;;;;;;;10.90;48.20;;;;;;4984314;28;20404;-79
2022/03/30 01:48:28;;;;;;;22.45;11.95;;;10.90;48.00;;;;;;4983990;28;19913;-79
2022/03/30 01:50:54;;;;;;;20.52;12.05;;;10.90;47.70;;;;;;4982519;28;20029;-78
2022/03/30 01:53:20;;;;;;;26.65;12.77;;;10.90;47.80;;;;;;4984506;28;20061;-79
2022/03/30 01:55:45;;;;;;;;;;;10.90;48.40;;;;;;4982733;28;20026;-79
2022/03/30 01:58:11;;;;;;;26.20;13.25;;;10.90;48.50;;;;;;4983568;28;19953;-79
2022/03/30 02:00:37;;;;;;;;;;;10.80;48.60;;;;;;4983206;28;20026;-79
2022/03/30 02:03:03;;;;;;;25.67;14.30;;;10.80;49.00;;;;;;4984875;28;20322;-80
2022/03/30 02:05:31;;;;;;;;;;;10.80;48.90;;;;;;4984445;28;20514;-79
2022/03/30 02:07:57;;;;;;;30.42;13.68;;;10.70;48.90;;;;;;4984331;28;19921;-80
2022/03/30 02:10:22;;;;;;;;;;;10.80;48.60;;;;;;4984111;28;20035;-78
2022/03/30 02:12:48;;;;;;;25.67;12.98;;;10.70;48.60;;;;;;4984896;28;19925;-79
2022/03/30 02:15:14;;;;;;;26.90;13.00;;;10.70;48.20;;;;;;4982961;28;20066;-79
2022/03/30 02:17:40;;;;;;;;;;;10.80;48.00;;;;;;4984039;28;20543;-79
2022/03/30 02:20:08;;;;;;;30.23;15.68;;;10.80;48.70;;;;;;4984401;28;19945;-79
2022/03/30 02:22:34;;;;;;;42.35;20.80;;;10.80;48.90;;;;;;4982351;28;20027;-79
2022/03/30 02:25:00;;;;;;;40.65;21.45;;;10.80;49.90;;;;;;4982723;28;20480;-80
2022/03/30 02:27:25;;;;;;;;;;;10.80;49.80;;;;;;4982810;28;20046;-78
2022/03/30 02:29:53;;;;;;;30.73;15.45;;;10.70;49.70;;;;;;4983702;28;19910;-79
2022/03/30 02:32:19;;;;;;;32.70;14.68;;;10.80;49.90;;;;;;4983698;28;20026;-79
2022/03/30 02:34:45;;;;;;;;;;;10.80;49.40;;;;;;4984279;28;20037;-80
2022/03/30 02:37:12;;;;;;;29.15;13.85;;;10.80;49.10;;;;;;4984156;28;19918;-79
2022/03/30 02:39:38;;;;;;;29.17;13.35;;;10.80;48.90;;;;;;4983753;28;20037;-80
2022/03/30 02:42:06;;;;;;;19.63;11.05;;;10.80;48.60;;;;;;4982963;28;20037;-78
2022/03/30 02:44:32;;;;;;;22.08;12.88;;;10.80;48.20;;;;;;4983156;28;20082;-79
2022/03/30 02:46:58;;;;;;;;;;;10.80;48.30;;;;;;4981934;28;20062;-79
2022/03/30 02:49:25;;;;;;;30.33;13.48;;;10.80;48.40;;;;;;4983293;28;20060;-79
2022/03/30 02:51:51;;;;;;;22.88;13.40;;;10.80;48.30;;;;;;4982389;28;20062;-79
2022/03/30 02:54:16;;;;;;;;;;;10.80;48.80;;;;;;4983981;28;20034;-80
2022/03/30 02:56:42;;;;;;;29.95;14.43;;;10.70;49.10;;;;;;4982995;28;20307;-79
2022/03/30 02:59:07;;;;;;;29.75;14.38;;;10.70;48.80;;;;;;4983411;28;20046;-79
2022/03/30 03:01:33;;;;;;;;;;;10.70;48.80;;;;;;4984357;28;20051;-78
2022/03/30 03:03:59;;;;;;;36.35;15.55;;;10.70;48.70;;;;;;4983289;28;20034;-79
2022/03/30 03:06:25;;;;;;;;;;;10.70;48.40;;;;;;4982570;28;20035;-79
2022/03/30 03:08:51;;;;;;;34.78;16.25;;;10.70;48.60;;;;;;4983225;28;19929;-79
2022/03/30 03:11:17;;;;;;;;;;;10.70;48.50;;;;;;4984391;28;20035;-78
2022/03/30 03:13:42;;;;;;;31.75;16.33;;;10.70;48.40;;;;;;4982954;28;19918;-80
2022/03/30 03:16:08;;;;;;;;;;;10.70;48.40;;;;;;4984655;28;20062;-79
2022/03/30 03:18:35;;;;;;;32.63;15.38;;;10.70;48.50;;;;;;4984289;28;19930;-79
2022/03/30 03:21:01;;;;;;;29.50;13.82;;;10.70;48.50;;;;;;4982947;28;20090;-79
2022/03/30 03:23:26;;;;;;;;;;;10.70;48.80;;;;;;4983931;28;20038;-79
2022/03/30 03:25:53;;;;;;;36.20;14.45;;;10.70;48.90;;;;;;4983469;28;19910;-79
2022/03/30 03:28:19;;;;;;;25.65;14.07;;;10.60;49.10;;;;;;4982541;28;20102;-78
2022/03/30 03:30:44;;;;;;;;;;;10.70;49.00;;;;;;4984108;28;20027;-79
2022/03/30 03:33:11;;;;;;;30.60;14.82;;;10.60;49.00;;;;;;4982275;28;19921;-80
2022/03/30 03:35:37;;;;;;;37.17;16.48;;;10.60;49.20;;;;;;4981304;28;20023;-79
2022/03/30 03:38:04;;;;;;;33.22;13.88;;;10.60;49.40;;;;;;4981925;28;20066;-79
2022/03/30 03:40:30;;;;;;;29.52;15.88;;;10.60;49.50;;;;;;4982814;28;20035;-79
2022/03/30 03:42:57;;;;;;;24.38;13.52;;;10.50;49.80;;;;;;4982261;28;20030;-79
2022/03/30 03:45:22;;;;;;;38.65;17.42;;;10.50;49.90;;;;;;4982414;28;20030;-79
2022/03/30 03:47:48;;;;;;;;;;;10.50;50.20;;;;;;4981834;28;20027;-79
2022/03/30 03:50:14;;;;;;;28.85;14.70;;;10.40;51.50;;;;;;4981533;28;19906;-80
2022/03/30 03:52:40;;;;;;;25.35;14.50;;;10.40;51.80;;;;;;4982101;28;20041;-79
2022/03/30 03:55:06;;;;;;;;;;;10.30;52.00;;;;;;4982082;28;20055;-79
2022/03/30 03:57:33;;;;;;;26.23;13.07;;;10.30;52.20;;;;;;4985856;28;19910;-79
2022/03/30 03:59:59;;;;;;;30.30;14.13;;;10.20;52.40;;;;;;4986219;28;20110;-79
2022/03/30 04:02:25;;;;;;;;;;;10.30;52.80;;;;;;4993147;28;20031;-79
2022/03/30 04:04:51;;;;;;;24.85;13.38;;;10.30;52.00;;;;;;4994775;28;19910;-79
2022/03/30 04:07:16;;;;;;;;;;;10.30;52.10;;;;;;4986567;28;20061;-78
2022/03/30 04:09:42;;;;;;;29.60;13.73;;;10.20;52.30;;;;;;4985620;28;19906;-79
2022/03/30 04:12:08;;;;;;;;;;;10.20;52.30;;;;;;4986191;28;20050;-77
2022/03/30 04:14:34;;;;;;;29.63;15.88;;;10.20;53.20;;;;;;4984840;28;19910;-79
2022/03/30 04:16:59;;;;;;;31.13;16.08;;;10.20;53.10;;;;;;4983948;28;20030;-79
2022/03/30 04:19:25;;;;;;;;;;;10.10;53.10;;;;;;4986704;28;20041;-79
2022/03/30 04:21:51;;;;;;;39.65;18.45;;;10.10;54.00;;;;;;4986117;28;20314;-79
2022/03/30 04:24:16;;;;;;;;;;;10.10;54.00;;;;;;4983952;28;20050;-80
2022/03/30 04:26:45;;;;;;;37.15;18.85;;;10.10;54.20;;;;;;4983138;28;19949;-78
2022/03/30 04:29:11;;;;;;;43.55;19.15;;;10.00;54.60;;;;;;4984953;28;20122;-79
2022/03/30 04:31:37;;;;;;;;;;;10.00;53.80;;;;;;4984441;28;20055;-79
2022/03/30 04:34:02;;;;;;;30.75;19.13;;;10.00;54.30;;;;;;4977380;28;19965;-78
2022/03/30 04:36:28;;;;;;;34.92;19.75;;;10.00;54.30;;;;;;4980309;28;20035;-79
2022/03/30 04:38:54;;;;;;;39.03;19.92;;;10.00;54.20;;;;;;4981824;28;20524;-79
2022/03/30 04:41:19;;;;;;;;;;;10.00;54.10;;;;;;4983185;28;20037;-78
2022/03/30 04:43:45;;;;;;;32.88;17.30;;;10.00;54.10;;;;;;4982108;28;19910;-79
2022/03/30 04:46:12;;;;;;;;;;;10.10;54.40;;;;;;4980937;28;20117;-79
2022/03/30 04:48:38;;;;;;;41.85;15.73;;;10.00;55.30;;;;;;4982974;28;19913;-78
2022/03/30 04:51:04;;;;;;;;;;;10.00;55.00;;;;;;4983776;28;20031;-79
2022/03/30 04:53:30;;;;;;;39.55;17.30;;;10.00;55.00;;;;;;4984149;28;19906;-79
2022/03/30 04:55:55;;;;;;;;;;;10.00;55.40;;;;;;4986255;28;20571;-80
2022/03/30 04:58:21;;;;;;;42.10;18.80;;;10.00;55.80;;;;;;4974274;28;19910;-79
2022/03/30 05:00:47;;;;;;;;;;;10.00;55.90;;;;;;4977219;28;20122;-79
2022/03/30 05:03:12;;;;;;;41.13;19.60;;;10.10;55.80;;;;;;4979199;28;19910;-80
2022/03/30 05:05:38;;;;;;;;;;;10.10;55.60;;;;;;4982322;28;20090;-77
2022/03/30 05:08:04;;;;;;;37.65;18.50;;;10.10;55.20;;;;;;4972065;28;19925;-79
2022/03/30 05:10:30;;;;;;;48.95;17.98;;;10.20;55.20;;;;;;4978617;28;20121;-78
2022/03/30 05:12:55;;;;;;;36.10;17.88;;;10.30;55.00;;;;;;4975145;28;20042;-79
2022/03/30 05:15:24;;;;;;;;;;;10.30;54.40;;;;;;4976560;28;20062;-79
2022/03/30 05:17:50;;;;;;;43.72;16.95;;;10.40;54.20;;;;;;4977291;28;19913;-79
2022/03/30 05:20:17;;;;;;;33.38;15.73;;;10.50;54.10;;;;;;4975898;28;20034;-79
2022/03/30 05:22:44;;;;;;;27.33;15.10;;;10.60;53.60;;;;;;4977110;28;20041;-80
2022/03/30 05:25:11;;;;;;;35.88;15.13;;;10.70;53.20;;;;;;4977764;28;20039;-79
2022/03/30 05:27:38;;;;;;;26.33;14.05;;;10.80;53.60;;;;;;4975285;28;20504;-78
2022/03/30 05:30:08;;;;;;;34.60;16.10;;;10.90;52.80;;;;;;4976246;28;20034;-79
2022/03/30 05:32:35;;;;;;;43.08;15.75;;;11.00;52.50;;;;;;4976116;28;20125;-77
2022/03/30 05:35:00;;;;;;;;;;;11.20;51.80;;;;;;4978937;28;20026;-79
2022/03/30 05:37:26;;;;;;;33.38;14.52;;;11.30;50.90;;;;;;4976321;28;20433;-79
2022/03/30 05:39:52;;;;;;;;;;;11.50;50.00;;;;;;4978408;28;20026;-79
2022/03/30 05:42:18;;;;;;;31.67;15.73;;;11.70;50.20;;;;;;4977597;28;20006;-79
2022/03/30 05:44:44;;;;;;;;;;;11.90;50.30;;;;;;4977667;28;20027;-77
2022/03/30 05:47:10;;;;;;;40.33;16.35;;;12.30;49.70;;;;;;4979253;28;19913;-78
2022/03/30 05:49:36;;;;;;;;;;;12.70;49.10;;;;;;4979146;28;20038;-77
2022/03/30 05:52:03;;;;;;;28.60;14.27;;;13.10;48.80;;;;;;4979882;28;19917;-78
2022/03/30 05:54:28;;;;;;;35.55;14.05;;;13.40;45.40;;;;;;4980026;28;20053;-78
2022/03/30 05:57:00;;;;;;;;;;;13.80;44.60;;;;;;4981560;28;20038;-78
2022/03/30 05:59:26;;;;;;;34.45;14.32;;;14.10;43.70;;;;;;4982064;28;19972;-79
2022/03/30 06:01:51;;;;;;;32.70;13.85;;;14.20;42.50;;;;;;4987454;28;20049;-78
2022/03/30 06:04:17;;;;;;;;;;;14.40;41.50;;;;;;4988310;28;20440;-78
2022/03/30 06:06:43;;;;;;;32.45;13.07;;;14.30;41.10;;;;;;4997119;28;19918;-78
2022/03/30 06:09:08;;;;;;;;;;;14.20;41.00;;;;;;4997454;28;20014;-78
2022/03/30 06:11:34;;;;;;;26.73;14.93;;;14.20;41.10;;;;;;4993369;28;19894;-78
2022/03/30 06:13:59;;;;;;;;;;;13.90;41.60;;;;;;4992002;28;20039;-78
2022/03/30 06:16:27;;;;;;;24.33;14.55;;;13.90;42.00;;;;;;4992878;28;19944;-78
2022/03/30 06:18:52;;;;;;;37.63;17.25;;;14.00;43.30;;;;;;4987209;28;20030;-78
2022/03/30 06:21:18;;;;;;;;;;;14.20;43.80;;;;;;4982985;28;20031;-80
2022/03/30 06:23:44;;;;;;;33.40;14.70;;;14.50;42.80;;;;;;4968877;28;19913;-89
2022/03/30 06:26:10;;;;;;;;;;;14.80;42.60;;;;;;4967179;28;20134;-85
2022/03/30 06:28:36;;;;;;;26.55;12.10;;;15.20;42.60;;;;;;4968197;28;19996;-87
2022/03/30 06:31:02;;;;;;;36.08;14.85;;;15.60;41.90;;;;;;4966602;28;20038;-84
2022/03/30 06:33:27;;;;;;;;;;;16.00;39.70;;;;;;4967316;28;20031;-85
2022/03/30 06:35:53;;;;;;;27.95;14.88;;;16.40;37.50;;;;;;4966143;28;19910;-85
2022/03/30 06:38:19;;;;;;;34.75;19.55;;;16.50;36.80;;;;;;4967809;28;20046;-82
2022/03/30 06:40:46;;;;;;;46.63;16.17;;;16.70;36.20;;;;;;4968167;28;20038;-81
2022/03/30 06:43:13;;;;;;;34.40;15.98;;;16.90;35.60;;;;;;4967863;28;20030;-84
2022/03/30 06:45:39;;;;;;;26.55;14.07;;;17.20;35.10;;;;;;4967208;28;20359;-83
2022/03/30 06:48:06;;;;;;;27.98;13.85;;;17.40;35.20;;;;;;4966658;28;20488;-81
2022/03/30 06:50:32;;;;;;;21.80;13.30;;;17.50;35.20;;;;;;4966340;28;20022;-82
2022/03/30 06:52:59;;;;;;;36.67;13.88;;;17.70;34.70;;;;;;4966436;28;20507;-86
2022/03/30 06:55:25;;;;;;;29.10;13.90;;;17.70;34.50;;;;;;4966980;28;20026;-82
2022/03/30 06:57:51;;;;;;;28.63;14.32;;;17.80;35.20;;;;;;4967786;28;20046;-85
2022/03/30 07:00:17;;;;;;;27.75;13.73;;;18.00;34.40;;;;;;4966205;28;20037;-82
2022/03/30 07:02:43;;;;;;;23.05;14.45;;;18.10;34.50;;;;;;4967998;28;20031;-84
2022/03/30 07:05:09;;;;;;;32.20;15.70;;;18.50;33.60;;;;;;4966161;28;20099;-82
2022/03/30 07:10:20;;;;;;;30.27;19.00;;;18.70;32.50;;;;;;4967923;28;20057;-85
2022/03/30 07:12:50;;;;;;;35.67;16.25;;;18.70;32.90;;;;;;4967372;28;20046;-85
2022/03/30 07:15:18;;;;;;;28.23;15.02;;;18.60;33.30;;;;;;4967673;28;20404;-83
2022/03/30 07:17:49;;;;;;;29.67;13.55;;;18.90;33.30;;;;;;4967424;28;20074;-84
2022/03/30 07:20:16;;;;;;;23.98;14.13;;;19.10;32.20;;;;;;4967156;28;20049;-82
2022/03/30 07:22:43;;;;;;;25.80;16.92;;;19.30;32.00;;;;;;4965755;28;20027;-81
2022/03/30 07:25:09;;;;;;;29.33;17.63;;;19.60;31.50;;;;;;4966170;28;20030;-81
2022/03/30 07:27:38;;;;;;;25.95;16.55;;;20.00;30.50;;;;;;4967446;28;20031;-83
2022/03/30 07:30:06;;;;;;;27.38;14.95;;;20.40;30.00;;;;;;4966962;28;20516;-82
2022/03/30 07:32:32;;;;;;;23.05;13.82;;;20.50;29.70;;;;;;4969854;28;20034;-81
2022/03/30 07:34:57;;;;;;;24.38;13.00;;;20.80;29.80;;;;;;4970580;28;20041;-79
2022/03/30 07:37:23;;;;;;;28.27;14.38;;;21.40;28.50;;;;;;4971531;28;20049;-78
2022/03/30 07:39:49;;;;;;;26.35;15.57;;;21.90;28.20;;;;;;4969109;28;20049;-79
2022/03/30 07:42:14;;;;;;;28.10;13.38;;;22.20;27.60;;;;;;4971138;28;20042;-78
2022/03/30 07:44:40;;;;;;;24.60;13.25;;;22.70;27.80;;;;;;4970918;28;20649;-80
2022/03/30 07:47:06;;;;;;;29.20;13.85;;;23.50;27.10;;;;;;4970960;28;20022;-79
2022/03/30 07:49:31;;;;;;;26.25;14.35;;;24.20;26.00;;;;;;4969845;28;20415;-79
2022/03/30 07:52:00;;;;;;;24.75;14.05;;;24.50;25.60;;;;;;4969879;28;20027;-81
2022/03/30 07:54:26;;;;;;;32.65;14.02;;;25.00;24.80;;;;;;4970537;28;20037;-81
2022/03/30 07:56:51;;;;;;;29.98;15.18;;;25.50;24.20;;;;;;4971003;28;20030;-80
2022/03/30 07:59:17;;;;;;;22.92;14.38;;;25.60;23.60;;;;;;4968494;28;20057;-81
2022/03/30 08:01:43;;;;;;;29.17;15.82;;;25.70;23.70;;;;;;4970928;28;20152;-81
2022/03/30 08:04:08;;;;;;;25.40;14.30;;;26.10;23.40;;;;;;4969601;28;20085;-82
2022/03/30 08:06:34;;;;;;;30.77;15.18;;;26.00;22.80;;;;;;4970190;28;20034;-81
2022/03/30 08:08:59;;;;;;;25.13;15.40;;;26.00;22.70;;;;;;4970128;28;20031;-80
2022/03/30 08:11:25;;;;;;;29.10;14.55;;;25.70;22.60;;;;;;4970649;28;20615;-80
2022/03/30 08:13:52;;;;;;;26.40;14.57;;;25.40;23.10;;;;;;4968567;28;20047;-81
2022/03/30 08:16:17;;;;;;;26.80;14.68;;;25.70;23.20;;;;;;4969489;28;20030;-82
2022/03/30 08:18:43;;;;;;;32.80;15.52;;;25.70;22.70;;;;;;4969373;28;20110;-82
2022/03/30 08:23:53;;;;;;;31.88;15.27;;;25.40;22.60;;;;;;4970170;28;20034;-82
2022/03/30 08:26:20;;;;;;;27.85;14.50;;;25.40;22.60;;;;;;4969067;28;20031;-82
2022/03/30 08:28:45;;;;;;;29.52;15.02;;;25.10;22.20;;;;;;4968774;28;20424;-82
2022/03/30 08:31:11;;;;;;;26.92;14.15;;;24.40;22.90;;;;;;4968470;28;20042;-80
2022/03/30 08:33:36;;;;;;;20.73;12.88;;;23.60;23.70;;;;;;4969429;28;20110;-81
2022/03/30 08:36:02;;;;;;;41.20;16.05;;;23.00;24.70;;;;;;4970526;28;20038;-81
2022/03/30 08:38:28;;;;;;;27.27;13.43;;;22.80;24.80;;;;;;4969654;28;20039;-81
2022/03/30 08:40:57;;;;;;;25.67;14.18;;;22.60;25.40;;;;;;4968405;28;20027;-81
2022/03/30 08:43:24;;;;;;;36.67;14.38;;;22.60;25.30;;;;;;4970162;28;20073;-82
2022/03/30 08:45:50;;;;;;;20.95;13.18;;;23.00;24.80;;;;;;4969993;28;20034;-79
2022/03/30 08:48:16;;;;;;;22.95;14.57;;;23.00;25.20;;;;;;4969782;28;20428;-79
2022/03/30 08:50:41;;;;;;;27.58;14.43;;;23.00;25.00;;;;;;4968899;28;20031;-79
2022/03/30 08:53:26;;;;;;;23.75;15.10;;;23.00;25.40;;;;;;4968907;28;20557;-79
2022/03/30 08:55:52;;;;;;;26.45;13.57;;;23.40;24.80;;;;;;4968759;28;20105;-79
2022/03/30 08:58:18;;;;;;;28.17;16.10;;;23.60;24.90;;;;;;4969857;28;20038;-77
2022/03/30 09:00:44;;;;;;;21.30;13.38;;;24.00;25.00;;;;;;4967671;28;20061;-81
2022/03/30 09:03:13;;;;;;;35.47;14.15;;;24.00;24.40;;;;;;4969252;28;20038;-82
2022/03/30 09:05:39;;;;;;;21.90;14.35;;;23.80;24.20;;;;;;4969279;28;20063;-82
2022/03/30 09:08:20;;;;;;;30.45;14.27;;;23.50;24.60;;;;;;4967957;28;20444;-82
2022/03/30 09:10:48;;;;;;;30.92;13.65;;;23.20;25.30;;;;;;4968338;28;20113;-79
2022/03/30 09:13:17;;;;;;;26.98;14.45;;;23.20;26.00;;;;;;4968132;28;20105;-80
2022/03/30 09:15:45;;;;;;;46.15;15.13;;;23.30;25.80;;;;;;4967897;28;20042;-82
2022/03/30 09:18:14;;;;;;;29.67;14.77;;;23.00;25.90;;;;;;4967984;28;20068;-81
2022/03/30 09:20:46;;;;;;;31.20;14.38;;;23.10;26.20;;;;;;4969339;28;20030;-81
2022/03/30 09:23:13;;;;;;;31.40;13.48;;;23.20;26.20;;;;;;4968982;28;20027;-82
2022/03/30 09:25:44;;;;;;;34.85;15.15;;;23.10;26.60;;;;;;4968852;28;20052;-81
2022/03/30 09:28:10;;;;;;;26.50;15.70;;;23.10;26.10;;;;;;4968299;28;20082;-82
2022/03/30 09:30:37;;;;;;;25.45;15.57;;;22.90;26.00;;;;;;4968979;28;20031;-81
2022/03/30 09:33:02;;;;;;;39.08;15.05;;;22.70;26.20;;;;;;4968772;28;20035;-83
2022/03/30 09:35:38;;;;;;;26.10;15.07;;;22.00;26.80;;;;;;4967885;28;20034;-83
2022/03/30 09:38:10;;;;;;;31.00;15.40;;;21.60;27.50;;;;;;4969275;28;20101;-83
2022/03/30 09:40:47;;;;;;;30.15;15.63;;;21.30;28.10;;;;;;4967030;28;20432;-84
2022/03/30 09:43:16;;;;;;;24.83;16.33;;;21.10;28.10;;;;;;4967467;28;20291;-84
2022/03/30 09:45:42;;;;;;;38.22;15.43;;;21.10;28.50;;;;;;4968754;28;20118;-84
2022/03/30 09:48:18;;;;;;;33.17;16.48;;;21.10;28.60;;;;;;4967708;28;20110;-83
2022/03/30 09:50:46;;;;;;;28.10;15.82;;;21.30;28.50;;;;;;4967352;28;20122;-83
2022/03/30 09:53:14;;;;;;;33.28;18.30;;;21.70;28.20;;;;;;4968488;28;20035;-81
2022/03/30 09:56:03;;;;;;;33.58;16.65;;;22.00;28.10;;;;;;4968344;28;20030;-82
2022/03/30 09:58:31;;;;;;;40.65;17.10;;;22.30;27.00;;;;;;4966381;28;20039;-80
2022/03/30 10:01:22;;;;;;;31.73;17.38;;;22.20;27.40;;;;;;4967367;28;20027;-83
2022/03/30 10:03:59;;;;;;;32.95;16.85;;;22.30;27.20;;;;;;4967106;28;20031;-82
2022/03/30 10:06:32;;;;;;;29.48;17.52;;;22.40;27.00;;;;;;4967906;28;20027;-83
2022/03/30 10:08:58;;;;;;;28.67;17.00;;;22.20;27.20;;;;;;4967092;28;20046;-82
2022/03/30 10:11:27;;;;;;;31.83;16.85;;;21.70;27.50;;;;;;4966463;28;20038;-84
2022/03/30 10:13:59;;;;;;;28.38;17.10;;;21.40;27.90;;;;;;4967140;28;20042;-83
2022/03/30 10:16:27;;;;;;;27.42;17.50;;;21.40;28.20;;;;;;4967960;28;20551;-82
2022/03/30 10:18:53;;;;;;;34.88;16.80;;;21.60;28.20;;;;;;4968031;28;20126;-82
2022/03/30 10:21:22;;;;;;;36.90;16.20;;;21.60;27.70;;;;;;4968355;28;20074;-80
2022/03/30 10:24:02;;;;;;;31.95;17.67;;;21.60;27.70;;;;;;4966643;28;20027;-80
2022/03/30 10:26:42;;;;;;;31.77;16.90;;;21.40;27.90;;;;;;4966647;28;20542;-81
2022/03/30 10:29:11;;;;;;;36.50;19.27;;;21.00;28.50;;;;;;4967689;28;20101;-83
2022/03/30 10:31:37;;;;;;;28.83;16.75;;;20.90;28.50;;;;;;4967756;28;20388;-82
2022/03/30 10:34:24;;;;;;;43.08;17.95;;;20.70;28.70;;;;;;4966606;28;20038;-82
2022/03/30 10:37:00;;;;;;;35.67;17.10;;;20.80;29.00;;;;;;4967623;28;20061;-79
2022/03/30 10:39:27;;;;;;;40.38;19.52;;;20.60;29.30;;;;;;4966656;28;20494;-82
2022/03/30 10:42:11;;;;;;;35.08;17.88;;;20.50;29.20;;;;;;4967568;28;20483;-81
2022/03/30 10:44:58;;;;;;;47.90;18.73;;;20.50;29.30;;;;;;4967394;28;20042;-84
2022/03/30 10:47:26;;;;;;;66.75;37.55;;;20.70;29.30;;;;;;4967769;28;20034;-80
2022/03/30 10:49:57;;;;;;;36.13;20.38;;;20.30;30.00;;;;;;4966174;28;20069;-81
2022/03/30 10:52:43;;;;;;;42.45;19.63;;;19.90;29.70;;;;;;4966493;28;20051;-84
2022/03/30 10:55:15;;;;;;;95.18;43.28;;;19.70;30.10;;;;;;4966710;28;20034;-83
2022/03/30 10:57:43;;;;;;;42.53;21.48;;;19.70;30.30;;;;;;4967585;28;20122;-78
2022/03/30 11:00:16;;;;;;;27.67;18.73;;;19.80;30.60;;;;;;4967871;28;20026;-82
2022/03/30 11:02:41;;;;;;;42.50;24.63;;;20.10;30.30;;;;;;4965814;28;20073;-79
2022/03/30 11:05:12;;;;;;;34.83;18.77;;;20.10;29.70;;;;;;4966934;28;20740;-83
2022/03/30 11:07:38;;;;;;;53.90;26.10;;;20.10;29.70;;;;;;4967007;28;20034;-82
2022/03/30 11:10:45;;;;;;;71.60;34.05;;;19.90;29.90;;;;;;4967630;28;20034;-85
2022/03/30 11:13:11;;;;;;;44.88;24.45;;;19.70;30.00;;;;;;4956168;28;20046;-83
2022/03/30 11:15:59;;;;;;;46.92;23.65;;;19.60;30.50;;;;;;4967569;28;20050;-80
2022/03/30 11:18:29;;;;;;;47.83;25.13;;;19.60;30.60;;;;;;4965633;28;20089;-83
2022/03/30 11:21:16;;;;;;;54.90;24.50;;;19.60;30.70;;;;;;4965735;28;20019;-78
2022/03/30 11:24:11;;;;;;;38.67;19.77;;;19.80;30.00;;;;;;4965778;28;20031;-80
2022/03/30 11:26:49;;;;;;;32.22;17.98;;;19.60;29.80;;;;;;4966997;28;20038;-84
2022/03/30 11:29:40;;;;;;;37.55;21.13;;;19.60;30.10;;;;;;4966718;28;20105;-84
2022/03/30 11:32:25;;;;;;;37.38;20.88;;;19.50;29.90;;;;;;4967156;28;20035;-84
2022/03/30 11:34:56;;;;;;;43.63;19.80;;;19.50;30.10;;;;;;4945900;28;20050;-82
2022/03/30 11:37:48;;;;;;;35.50;19.30;;;19.50;30.10;;;;;;4965855;28;20685;-81
2022/03/30 11:40:16;;;;;;;36.92;16.27;;;19.50;30.70;;;;;;4967431;28;20106;-77
2022/03/30 11:42:53;;;;;;;30.52;15.02;;;19.50;30.50;;;;;;4965926;28;20038;-80
2022/03/30 11:45:22;;;;;;;33.72;16.05;;;19.70;31.00;;;;;;4967498;28;20031;-82
2022/03/30 11:47:49;;;;;;;32.13;15.90;;;20.00;30.10;;;;;;4967171;28;20351;-81
2022/03/30 11:50:37;;;;;;;30.02;15.50;;;20.00;29.90;;;;;;4966890;28;20035;-82
2022/03/30 11:53:12;;;;;;;24.38;14.70;;;20.10;29.50;;;;;;4966828;28;20114;-82
2022/03/30 11:55:59;;;;;;;38.70;14.10;;;20.20;29.90;;;;;;4965633;28;20030;-77
2022/03/30 11:58:27;;;;;;;25.92;14.77;;;20.40;29.50;;;;;;4965154;28;20504;-82
2022/03/30 12:00:56;;;;;;;29.05;16.15;;;20.50;29.00;;;;;;4965733;28;20023;-82
2022/03/30 12:03:22;;;;;;;30.10;14.70;;;20.60;29.00;;;;;;4965369;28;20077;-82
2022/03/30 12:05:52;;;;;;;23.80;13.52;;;20.70;28.80;;;;;;4965346;28;20035;-82
2022/03/30 12:08:18;;;;;;;28.92;13.82;;;20.70;28.80;;;;;;4967195;28;20023;-84
2022/03/30 12:10:44;;;;;;;24.02;12.45;;;20.80;28.90;;;;;;4966766;28;20053;-84
2022/03/30 12:13:09;;;;;;;26.98;13.43;;;20.90;28.80;;;;;;4966525;28;20094;-84
2022/03/30 12:15:36;;;;;;;31.60;15.45;;;21.10;28.80;;;;;;4966735;28;20504;-82
2022/03/30 12:18:02;;;;;;;30.10;17.38;;;21.00;28.10;;;;;;4968694;28;20039;-84
2022/03/30 12:20:33;;;;;;;26.15;14.10;;;21.00;28.60;;;;;;4970490;28;20437;-83
2022/03/30 12:23:01;;;;;;;40.55;17.73;;;21.00;29.50;;;;;;4970973;28;20097;-84
2022/03/30 12:25:30;;;;;;;43.88;20.27;;;21.10;28.60;;;;;;4969274;28;20110;-85
2022/03/30 12:27:56;;;;;;;28.00;15.98;;;20.80;29.20;;;;;;4970279;28;20041;-85
2022/03/30 12:30:23;;;;;;;37.13;15.05;;;20.60;29.70;;;;;;4969385;28;20133;-83
2022/03/30 12:32:49;;;;;;;22.88;13.93;;;20.40;29.50;;;;;;4970668;28;20026;-84
2022/03/30 12:35:16;;;;;;;30.98;14.90;;;20.40;30.00;;;;;;4970622;28;20027;-84
2022/03/30 12:37:45;;;;;;;25.10;14.07;;;20.40;29.80;;;;;;4970111;28;20030;-84
2022/03/30 12:40:18;;;;;;;22.60;13.70;;;20.40;29.70;;;;;;4970452;28;20035;-84
2022/03/30 12:42:44;;;;;;;26.63;14.07;;;20.50;29.70;;;;;;4969058;28;20121;-83
2022/03/30 12:45:14;;;;;;;28.38;13.75;;;20.50;29.80;;;;;;4968910;28;20056;-83
2022/03/30 12:48:02;;;;;;;28.45;14.90;;;20.60;29.60;;;;;;4969054;28;20027;-83
2022/03/30 12:50:33;;;;;;;30.83;15.30;;;20.40;29.90;;;;;;4970138;28;20439;-84
2022/03/30 12:53:15;;;;;;;24.73;13.68;;;20.40;30.30;;;;;;4970270;28;20411;-84
2022/03/30 12:55:43;;;;;;;27.20;11.93;;;20.40;30.00;;;;;;4970166;28;20113;-84
2022/03/30 12:58:16;;;;;;;25.83;11.82;;;20.40;30.00;;;;;;4969643;28;20085;-81